createdAt,value
2019-06-10T00:00:33.569Z,20.40
2019-06-10T00:03:02.861Z,20.40
2019-06-10T00:05:31.180Z,20.40
2019-06-10T00:08:04.259Z,20.40
2019-06-10T00:10:33.221Z,20.40
2019-06-10T00:13:03.612Z,20.40
2019-06-10T00:15:31.380Z,20.40
2019-06-10T00:18:22.219Z,20.30
2019-06-10T00:20:30.624Z,20.30
2019-06-10T00:23:00.067Z,20.30
2019-06-10T00:25:28.296Z,20.30
2019-06-10T00:27:56.284Z,20.30
2019-06-10T00:30:24.289Z,20.30
2019-06-10T00:32:52.285Z,20.30
2019-06-10T00:35:21.087Z,20.30
2019-06-10T00:37:51.187Z,20.20
2019-06-10T00:40:21.314Z,20.20
2019-06-10T00:42:50.603Z,20.20
2019-06-10T00:45:18.257Z,20.20
2019-06-10T00:47:47.210Z,20.30
2019-06-10T00:50:16.748Z,20.20
2019-06-10T00:52:45.439Z,20.30
2019-06-10T00:55:13.918Z,20.30
2019-06-10T00:57:42.028Z,20.30
2019-06-10T01:00:23.105Z,20.20
2019-06-10T01:02:41.049Z,20.30
2019-06-10T01:05:12.464Z,20.30
2019-06-10T01:07:41.393Z,20.30
2019-06-10T01:10:13.143Z,20.30
2019-06-10T01:12:40.704Z,20.30
2019-06-10T01:15:12.532Z,20.30
2019-06-10T01:17:41.806Z,20.40
2019-06-10T01:20:14.367Z,20.40
2019-06-10T01:22:41.064Z,20.40
2019-06-10T01:25:12.404Z,20.40
2019-06-10T01:27:40.880Z,20.40
2019-06-10T01:30:16.660Z,20.40
2019-06-10T01:32:38.487Z,20.40
2019-06-10T01:35:06.615Z,20.30
2019-06-10T01:37:34.958Z,20.30
2019-06-10T01:40:04.066Z,20.30
2019-06-10T01:42:34.575Z,20.30
2019-06-10T01:45:02.399Z,20.30
2019-06-10T01:47:31.039Z,20.30
2019-06-10T01:50:00.739Z,20.30
2019-06-10T01:52:28.898Z,20.30
2019-06-10T01:54:56.900Z,20.30
2019-06-10T01:57:25.006Z,20.30
2019-06-10T01:59:55.928Z,20.30
2019-06-10T02:02:25.449Z,20.30
2019-06-10T02:04:54.840Z,20.30
2019-06-10T02:07:23.244Z,20.20
2019-06-10T02:09:51.727Z,20.20
2019-06-10T02:12:23.714Z,20.20
2019-06-10T02:14:50.926Z,20.20
2019-06-10T02:17:20.047Z,20.20
2019-06-10T02:19:50.736Z,20.20
2019-06-10T02:22:19.478Z,20.20
2019-06-10T02:24:50.547Z,20.20
2019-06-10T02:27:21.481Z,20.30
2019-06-10T02:29:50.692Z,20.30
2019-06-10T02:32:30.769Z,20.30
2019-06-10T02:35:03.748Z,20.20
2019-06-10T02:37:25.536Z,20.20
2019-06-10T02:39:51.416Z,20.20
2019-06-10T02:42:29.721Z,20.20
2019-06-10T02:44:54.080Z,20.20
2019-06-10T02:47:24.595Z,20.10
2019-06-10T02:49:59.043Z,20.20
2019-06-10T02:52:31.473Z,20.20
2019-06-10T02:54:53.583Z,20.20
2019-06-10T02:57:31.932Z,20.20
2019-06-10T02:59:54.326Z,20.20
2019-06-10T03:02:23.750Z,20.20
2019-06-10T03:04:53.543Z,20.20
2019-06-10T03:07:28.142Z,20.20
2019-06-10T03:09:53.728Z,20.30
2019-06-10T03:12:24.270Z,20.30
2019-06-10T03:14:52.590Z,20.30
2019-06-10T03:17:24.804Z,20.40
2019-06-10T03:19:53.613Z,20.40
2019-06-10T03:22:23.006Z,20.50
2019-06-10T03:24:52.390Z,20.50
2019-06-10T03:27:21.140Z,20.50
2019-06-10T03:29:52.561Z,20.60
2019-06-10T03:32:23.165Z,20.60
2019-06-10T03:34:49.473Z,20.60
2019-06-10T03:37:18.371Z,20.60
2019-06-10T03:39:46.352Z,20.60
2019-06-10T03:42:15.258Z,20.60
2019-06-10T03:44:43.336Z,20.60
2019-06-10T03:47:12.189Z,20.60
2019-06-10T03:49:49.942Z,20.60
2019-06-10T03:52:10.193Z,20.70
2019-06-10T03:54:38.060Z,20.70
2019-06-10T03:57:05.916Z,20.80
2019-06-10T03:59:33.819Z,20.90
2019-06-10T04:02:02.326Z,20.90
2019-06-10T04:04:32.642Z,20.90
2019-06-10T04:07:03.784Z,21.00
2019-06-10T04:09:33.066Z,21.10
2019-06-10T04:12:02.068Z,21.20
2019-06-10T04:14:30.076Z,21.30
2019-06-10T04:16:57.962Z,21.40
2019-06-10T04:19:27.440Z,21.50
2019-06-10T04:21:57.305Z,21.60
2019-06-10T04:24:25.772Z,21.70
2019-06-10T04:26:54.959Z,21.70
2019-06-10T04:29:25.436Z,21.80
2019-06-10T04:31:52.669Z,21.90
2019-06-10T04:34:23.756Z,21.90
2019-06-10T04:36:52.430Z,22.00
2019-06-10T04:39:20.509Z,22.10
2019-06-10T04:41:52.918Z,22.20
2019-06-10T04:44:22.876Z,22.20
2019-06-10T04:46:51.972Z,22.30
2019-06-10T04:49:21.373Z,22.40
2019-06-10T04:51:52.367Z,22.30
2019-06-10T04:54:21.385Z,22.40
2019-06-10T04:56:49.711Z,22.50
2019-06-10T04:59:18.772Z,22.50
2019-06-10T05:01:46.940Z,22.60
2019-06-10T05:04:15.967Z,22.60
2019-06-10T05:06:44.045Z,22.70
2019-06-10T05:09:12.530Z,22.80
2019-06-10T05:11:42.824Z,23.00
2019-06-10T05:14:13.206Z,23.00
2019-06-10T05:16:42.876Z,23.10
2019-06-10T05:19:12.886Z,23.20
2019-06-10T05:21:42.331Z,23.30
2019-06-10T05:24:12.441Z,23.40
2019-06-10T05:26:42.017Z,23.50
2019-06-10T05:29:11.934Z,23.60
2019-06-10T05:31:39.582Z,23.70
2019-06-10T05:34:09.100Z,23.80
2019-06-10T05:36:37.047Z,23.80
2019-06-10T05:39:06.398Z,23.80
2019-06-10T05:41:35.245Z,23.80
2019-06-10T05:44:04.398Z,23.70
2019-06-10T05:46:34.706Z,23.70
2019-06-10T05:49:03.076Z,23.60
2019-06-10T05:51:33.791Z,23.50
2019-06-10T05:54:02.188Z,23.40
2019-06-10T05:56:33.777Z,23.40
2019-06-10T05:59:02.261Z,23.40
2019-06-10T06:01:29.714Z,23.30
2019-06-10T06:03:59.662Z,23.30
2019-06-10T06:06:29.179Z,23.40
2019-06-10T06:08:57.655Z,23.40
2019-06-10T06:11:27.307Z,23.60
2019-06-10T06:13:55.672Z,23.70
2019-06-10T06:16:25.630Z,23.90
2019-06-10T06:18:53.992Z,24.00
2019-06-10T06:21:29.187Z,23.90
2019-06-10T06:23:53.345Z,24.00
2019-06-10T06:26:23.553Z,24.10
2019-06-10T06:28:53.272Z,24.20
2019-06-10T06:31:23.017Z,24.20
2019-06-10T06:33:52.640Z,24.10
2019-06-10T06:36:22.621Z,24.20
2019-06-10T06:38:52.858Z,24.70
2019-06-10T06:41:22.603Z,25.70
2019-06-10T06:43:52.781Z,27.20
2019-06-10T06:46:23.122Z,28.40
2019-06-10T06:48:52.937Z,28.90
2019-06-10T06:51:33.643Z,29.60
2019-06-10T06:53:53.038Z,30.20
2019-06-10T06:56:19.163Z,30.40
2019-06-10T06:58:48.494Z,30.40
2019-06-10T07:01:16.644Z,30.40
2019-06-10T07:03:45.240Z,30.20
2019-06-10T07:06:13.529Z,30.20
2019-06-10T07:08:43.549Z,29.90
2019-06-10T07:11:13.273Z,29.50
2019-06-10T07:13:45.650Z,29.00
2019-06-10T07:16:13.142Z,28.60
2019-06-10T07:18:46.381Z,28.20
2019-06-10T07:21:13.120Z,27.70
2019-06-10T07:23:45.138Z,27.40
2019-06-10T07:26:12.615Z,27.30
2019-06-10T07:28:44.500Z,27.10
2019-06-10T07:31:20.839Z,27.00
2019-06-10T07:33:47.633Z,27.10
2019-06-10T07:36:15.844Z,27.40
2019-06-10T07:38:48.781Z,28.00
2019-06-10T07:41:13.946Z,28.90
2019-06-10T07:43:47.535Z,30.10
2019-06-10T07:46:13.372Z,31.50
2019-06-10T07:48:46.201Z,33.10
2019-06-10T07:51:13.112Z,34.50
2019-06-10T07:53:44.621Z,35.20
2019-06-10T07:56:12.909Z,35.00
2019-06-10T07:58:44.493Z,34.00
2019-06-10T08:01:12.871Z,32.90
2019-06-10T08:03:40.127Z,31.80
2019-06-10T08:06:08.179Z,30.80
2019-06-10T08:08:36.831Z,30.20
2019-06-10T08:11:05.009Z,30.90
2019-06-10T08:13:33.093Z,32.60
2019-06-10T08:16:02.841Z,33.80
2019-06-10T08:18:38.431Z,34.30
2019-06-10T08:21:02.920Z,34.50
2019-06-10T08:23:32.681Z,35.30
2019-06-10T08:26:03.169Z,35.80
2019-06-10T08:28:30.117Z,37.10
2019-06-10T08:30:58.554Z,38.30
2019-06-10T08:33:26.951Z,38.80
2019-06-10T08:35:59.374Z,38.80
2019-06-10T08:38:24.956Z,39.10
2019-06-10T08:40:53.044Z,39.20
2019-06-10T08:43:22.607Z,39.40
2019-06-10T08:45:52.909Z,40.00
2019-06-10T08:48:22.768Z,41.00
2019-06-10T08:50:53.132Z,41.90
2019-06-10T08:53:22.761Z,42.40
2019-06-10T08:55:53.422Z,42.60
2019-06-10T08:58:23.070Z,42.70
2019-06-10T09:00:53.673Z,43.00
2019-06-10T09:03:23.403Z,43.30
2019-06-10T09:05:54.527Z,43.90
2019-06-10T09:08:23.511Z,44.00
2019-06-10T09:10:54.959Z,44.20
2019-06-10T09:13:22.657Z,44.80
2019-06-10T09:16:09.774Z,45.00
2019-06-10T09:18:25.435Z,45.40
2019-06-10T09:20:56.211Z,45.80
2019-06-10T09:23:25.673Z,45.90
2019-06-10T09:25:57.272Z,46.10
2019-06-10T09:28:24.651Z,46.00
2019-06-10T09:30:58.879Z,45.90
2019-06-10T09:33:23.136Z,45.70
2019-06-10T09:35:54.925Z,45.70
2019-06-10T09:38:23.230Z,45.70
2019-06-10T09:41:00.697Z,45.50
2019-06-10T09:43:24.181Z,45.70
2019-06-10T09:45:56.242Z,45.90
2019-06-10T09:48:23.128Z,45.10
2019-06-10T09:50:57.947Z,43.50
2019-06-10T09:53:33.893Z,41.80
2019-06-10T09:55:55.596Z,40.10
2019-06-10T09:58:24.212Z,40.20
2019-06-10T10:00:58.235Z,41.20
2019-06-10T10:03:27.395Z,42.50
2019-06-10T10:06:09.805Z,44.00
2019-06-10T10:08:26.006Z,45.00
2019-06-10T10:10:58.801Z,45.60
2019-06-10T10:13:24.583Z,45.80
2019-06-10T10:15:54.303Z,45.80
2019-06-10T10:18:24.560Z,45.70
2019-06-10T10:20:58.424Z,45.40
2019-06-10T10:23:22.981Z,44.90
2019-06-10T10:25:56.276Z,44.60
2019-06-10T10:28:23.026Z,44.80
2019-06-10T10:30:57.110Z,45.00
2019-06-10T10:33:26.830Z,45.00
2019-06-10T10:35:52.923Z,44.90
2019-06-10T10:38:22.900Z,44.60
2019-06-10T10:40:57.891Z,44.30
2019-06-10T10:43:28.990Z,43.20
2019-06-10T10:45:59.665Z,41.60
2019-06-10T10:48:23.080Z,40.00
2019-06-10T10:50:56.105Z,38.60
2019-06-10T10:53:26.088Z,37.40
2019-06-10T10:55:55.654Z,36.40
2019-06-10T10:58:24.007Z,35.60
2019-06-10T11:00:56.502Z,34.80
2019-06-10T11:03:24.107Z,34.20
2019-06-10T11:06:00.542Z,33.70
2019-06-10T11:08:23.002Z,33.40
2019-06-10T11:10:55.498Z,33.50
2019-06-10T11:13:22.264Z,33.80
2019-06-10T11:15:54.717Z,34.00
2019-06-10T11:18:22.758Z,33.90
2019-06-10T11:20:51.958Z,33.80
2019-06-10T11:23:22.677Z,33.80
2019-06-10T11:25:53.309Z,33.60
2019-06-10T11:28:22.645Z,33.40
2019-06-10T11:30:52.698Z,33.20
2019-06-10T11:33:22.752Z,33.00
2019-06-10T11:35:53.625Z,32.80
2019-06-10T11:38:23.280Z,32.70
2019-06-10T11:40:54.687Z,32.40
2019-06-10T11:43:22.628Z,32.30
2019-06-10T11:45:56.864Z,32.10
2019-06-10T11:48:23.919Z,32.00
2019-06-10T11:50:56.752Z,32.10
2019-06-10T11:53:24.586Z,32.10
2019-06-10T11:55:55.880Z,32.00
2019-06-10T11:58:25.307Z,32.10
2019-06-10T12:00:57.062Z,32.20
2019-06-10T12:03:24.106Z,32.30
2019-06-10T12:05:55.549Z,32.40
2019-06-10T12:08:23.612Z,32.40
2019-06-10T12:10:58.294Z,32.30
2019-06-10T12:13:22.753Z,32.20
2019-06-10T12:16:34.998Z,32.20
2019-06-10T12:18:22.952Z,32.10
2019-06-10T12:20:57.568Z,32.20
2019-06-10T12:23:23.753Z,32.10
2019-06-10T12:25:54.448Z,32.00
2019-06-10T12:28:22.534Z,32.00
2019-06-10T12:30:57.397Z,32.00
2019-06-10T12:33:25.212Z,32.10
2019-06-10T12:35:54.380Z,32.10
2019-06-10T12:38:22.689Z,32.10
2019-06-10T12:40:52.510Z,32.10
2019-06-10T12:43:23.249Z,32.10
2019-06-10T12:45:53.016Z,32.10
2019-06-10T12:48:22.300Z,32.10
2019-06-10T12:50:52.783Z,32.00
2019-06-10T12:53:22.889Z,31.90
2019-06-10T12:55:53.622Z,31.90
2019-06-10T12:58:22.644Z,31.80
2019-06-10T13:00:53.246Z,31.70
2019-06-10T13:03:23.457Z,31.60
2019-06-10T13:05:53.143Z,31.50
2019-06-10T13:08:23.959Z,31.40
2019-06-10T13:10:53.330Z,31.40
2019-06-10T13:13:22.908Z,31.40
2019-06-10T13:15:54.052Z,31.40
2019-06-10T13:18:25.062Z,31.40
2019-06-10T13:20:53.987Z,31.40
2019-06-10T13:23:29.035Z,31.40
2019-06-10T13:25:58.792Z,31.40
2019-06-10T13:28:23.115Z,31.50
2019-06-10T13:30:54.469Z,31.50
2019-06-10T13:33:22.945Z,31.60
2019-06-10T13:35:53.519Z,31.60
2019-06-10T13:38:22.781Z,31.60
2019-06-10T13:40:53.263Z,31.60
2019-06-10T13:43:23.126Z,31.50
2019-06-10T13:45:53.257Z,31.40
2019-06-10T13:48:23.320Z,31.30
2019-06-10T13:50:52.822Z,31.10
2019-06-10T13:53:23.227Z,30.90
2019-06-10T13:56:02.677Z,30.80
2019-06-10T13:58:22.982Z,30.70
2019-06-10T14:00:53.622Z,30.60
2019-06-10T14:03:22.997Z,30.60
2019-06-10T14:05:58.626Z,30.60
2019-06-10T14:08:23.336Z,30.70
2019-06-10T14:10:54.101Z,30.70
2019-06-10T14:13:23.842Z,30.60
2019-06-10T14:15:54.543Z,30.60
2019-06-10T14:18:23.071Z,30.70
2019-06-10T14:20:53.304Z,30.90
2019-06-10T14:23:22.294Z,31.00
2019-06-10T14:25:52.607Z,31.20
2019-06-10T14:28:38.048Z,31.40
2019-06-10T14:30:53.738Z,31.60
2019-06-10T14:33:23.278Z,31.60
2019-06-10T14:35:53.461Z,31.40
2019-06-10T14:38:24.078Z,31.30
2019-06-10T14:40:52.778Z,31.00
2019-06-10T14:43:23.134Z,30.90
2019-06-10T14:45:53.608Z,30.80
2019-06-10T14:48:25.037Z,30.80
2019-06-10T14:50:53.478Z,30.70
2019-06-10T14:53:23.238Z,30.70
2019-06-10T14:55:53.263Z,30.60
2019-06-10T14:58:23.120Z,30.60
2019-06-10T15:00:54.430Z,30.60
2019-06-10T15:03:22.133Z,30.70
2019-06-10T15:05:52.684Z,30.60
2019-06-10T15:08:22.822Z,30.60
2019-06-10T15:10:52.774Z,30.60
2019-06-10T15:13:23.498Z,30.50
2019-06-10T15:15:53.370Z,30.50
2019-06-10T15:18:23.876Z,30.50
2019-06-10T15:20:53.468Z,30.60
2019-06-10T15:23:23.531Z,30.60
2019-06-10T15:25:56.962Z,30.70
2019-06-10T15:28:24.574Z,30.90
2019-06-10T15:30:52.996Z,31.10
2019-06-10T15:33:24.034Z,31.20
2019-06-10T15:35:55.198Z,31.30
2019-06-10T15:38:23.555Z,31.30
2019-06-10T15:40:53.218Z,31.20
2019-06-10T15:43:23.383Z,31.00
2019-06-10T15:45:56.339Z,30.90
2019-06-10T15:48:25.599Z,30.80
2019-06-10T15:50:55.896Z,30.60
2019-06-10T15:53:25.873Z,30.60
2019-06-10T15:56:17.988Z,30.60
2019-06-10T15:58:26.030Z,30.70
2019-06-10T16:00:54.871Z,30.80
2019-06-10T16:03:25.642Z,30.80
2019-06-10T16:05:58.669Z,30.70
2019-06-10T16:08:27.985Z,30.60
2019-06-10T16:10:56.363Z,30.40
2019-06-10T16:13:26.002Z,30.30
2019-06-10T16:15:55.716Z,30.20
2019-06-10T16:18:28.662Z,30.20
2019-06-10T16:20:56.546Z,30.10
2019-06-10T16:23:26.656Z,30.00
2019-06-10T16:25:54.739Z,30.10
2019-06-10T16:28:24.737Z,30.10
2019-06-10T16:30:53.847Z,30.00
2019-06-10T16:33:25.991Z,30.10
2019-06-10T16:35:53.208Z,30.10
2019-06-10T16:38:23.788Z,30.10
2019-06-10T16:40:53.718Z,30.20
2019-06-10T16:43:24.143Z,30.10
2019-06-10T16:45:52.527Z,30.20
2019-06-10T16:48:21.519Z,30.10
2019-06-10T16:50:53.818Z,30.00
2019-06-10T16:53:22.949Z,30.00
2019-06-10T16:55:52.733Z,30.00
2019-06-10T16:58:21.150Z,29.90
2019-06-10T17:00:49.475Z,30.00
2019-06-10T17:03:18.349Z,30.00
2019-06-10T17:05:46.642Z,30.00
2019-06-10T17:08:14.455Z,30.00
2019-06-10T17:10:43.561Z,29.90
2019-06-10T17:13:13.310Z,29.80
2019-06-10T17:15:42.364Z,29.80
2019-06-10T17:18:12.960Z,29.70
2019-06-10T17:20:42.954Z,29.70
2019-06-10T17:23:26.375Z,29.60
2019-06-10T17:25:53.669Z,29.50
2019-06-10T17:28:25.634Z,29.50
2019-06-10T17:30:53.023Z,29.40
2019-06-10T17:33:22.860Z,29.40
2019-06-10T17:35:52.432Z,29.30
2019-06-10T17:38:20.874Z,29.20
2019-06-10T17:40:49.041Z,29.20
2019-06-10T17:43:17.337Z,29.20
2019-06-10T17:45:45.580Z,29.20
2019-06-10T17:48:13.739Z,29.10
2019-06-10T17:50:42.880Z,29.10
2019-06-10T17:53:12.705Z,29.00
2019-06-10T17:55:41.983Z,29.00
2019-06-10T17:58:12.959Z,28.90
2019-06-10T18:00:42.066Z,28.80
2019-06-10T18:03:13.042Z,28.70
2019-06-10T18:05:42.504Z,28.70
2019-06-10T18:08:12.946Z,28.60
2019-06-10T18:10:43.764Z,28.50
2019-06-10T18:13:16.302Z,28.50
2019-06-10T18:15:41.926Z,28.40
2019-06-10T18:18:12.841Z,28.30
2019-06-10T18:20:40.102Z,28.20
2019-06-10T18:23:08.253Z,28.10
2019-06-10T18:25:36.884Z,28.10
2019-06-10T18:28:05.249Z,28.00
2019-06-10T18:30:36.386Z,27.90
2019-06-10T18:33:04.792Z,27.90
2019-06-10T18:35:34.783Z,27.70
2019-06-10T18:38:06.401Z,27.70
2019-06-10T18:40:35.652Z,27.60
2019-06-10T18:43:04.212Z,27.60
2019-06-10T18:45:36.016Z,27.50
2019-06-10T18:48:02.877Z,27.50
2019-06-10T18:50:33.412Z,27.40
2019-06-10T18:53:03.960Z,27.40
2019-06-10T18:55:35.961Z,27.30
2019-06-10T18:58:02.473Z,27.30
2019-06-10T19:00:51.836Z,27.20
2019-06-10T19:03:10.453Z,27.10
2019-06-10T19:05:31.084Z,27.10
2019-06-10T19:08:02.299Z,27.00
2019-06-10T19:10:29.447Z,27.00
2019-06-10T19:12:57.398Z,26.90
2019-06-10T19:15:27.177Z,26.80
2019-06-10T19:17:55.259Z,26.70
2019-06-10T19:20:23.537Z,26.60
2019-06-10T19:22:53.964Z,26.60
2019-06-10T19:25:22.115Z,26.50
2019-06-10T19:27:53.161Z,26.50
2019-06-10T19:30:23.284Z,26.40
2019-06-10T19:32:52.816Z,26.30
2019-06-10T19:35:23.694Z,26.30
2019-06-10T19:37:51.815Z,26.20
2019-06-10T19:40:19.854Z,26.20
2019-06-10T19:42:47.960Z,26.10
2019-06-10T19:45:16.604Z,26.00
2019-06-10T19:47:45.784Z,26.00
2019-06-10T19:50:14.566Z,26.00
2019-06-10T19:52:45.490Z,25.90
2019-06-10T19:55:15.357Z,25.90
2019-06-10T19:57:44.062Z,25.90
2019-06-10T20:00:15.608Z,25.90
2019-06-10T20:02:46.531Z,25.90
2019-06-10T20:05:15.503Z,25.80
2019-06-10T20:07:48.431Z,25.80
2019-06-10T20:10:13.775Z,25.80
2019-06-10T20:12:44.832Z,25.80
2019-06-10T20:15:22.397Z,25.80
2019-06-10T20:17:52.347Z,25.80
2019-06-10T20:20:22.321Z,25.70
2019-06-10T20:22:49.563Z,25.70
2019-06-10T20:25:17.992Z,25.70
2019-06-10T20:27:46.168Z,25.60
2019-06-10T20:30:24.401Z,25.60
2019-06-10T20:32:46.481Z,25.60
2019-06-10T20:35:14.331Z,25.60
2019-06-10T20:37:44.636Z,25.50
2019-06-10T20:40:15.521Z,25.50
2019-06-10T20:42:44.913Z,25.40
2019-06-10T20:45:13.207Z,25.40
2019-06-10T20:47:44.595Z,25.40
2019-06-10T20:50:13.094Z,25.30
2019-06-10T20:52:44.224Z,25.30
2019-06-10T20:55:12.737Z,25.30
2019-06-10T20:57:52.099Z,25.30
2019-06-10T21:00:22.132Z,25.20
2019-06-10T21:02:45.901Z,25.20
2019-06-10T21:05:16.407Z,25.20
2019-06-10T21:07:46.834Z,25.20
2019-06-10T21:10:16.969Z,25.10
2019-06-10T21:12:46.752Z,25.10
2019-06-10T21:15:14.790Z,25.10
2019-06-10T21:17:44.814Z,25.10
2019-06-10T21:20:12.872Z,25.10
2019-06-10T21:22:44.234Z,25.10
2019-06-10T21:25:14.003Z,25.10
2019-06-10T21:27:44.664Z,25.10
2019-06-10T21:30:11.946Z,25.10
2019-06-10T21:32:41.684Z,25.10
2019-06-10T21:35:11.977Z,25.00
2019-06-10T21:37:39.549Z,25.00
2019-06-10T21:40:12.647Z,24.90
2019-06-10T21:42:40.067Z,24.90
2019-06-10T21:45:09.412Z,24.90
2019-06-10T21:47:38.309Z,24.80
2019-06-10T21:50:06.243Z,24.80
2019-06-10T21:52:34.511Z,24.80
2019-06-10T21:55:06.059Z,24.70
2019-06-10T21:57:37.330Z,24.70
2019-06-10T22:00:13.978Z,24.80
2019-06-10T22:02:42.752Z,24.90
2019-06-10T22:05:12.370Z,24.90
2019-06-10T22:07:42.291Z,24.90
2019-06-10T22:10:12.827Z,24.90
2019-06-10T22:12:42.163Z,24.90
2019-06-10T22:15:12.476Z,24.80
2019-06-10T22:17:42.298Z,24.80
2019-06-10T22:20:12.523Z,24.80
2019-06-10T22:22:42.713Z,24.80
2019-06-10T22:25:13.005Z,24.80
2019-06-10T22:27:42.104Z,24.80
2019-06-10T22:30:11.749Z,24.80
2019-06-10T22:32:40.045Z,24.80
2019-06-10T22:35:08.597Z,24.80
2019-06-10T22:37:36.696Z,24.80
2019-06-10T22:40:06.814Z,24.80
2019-06-10T22:42:37.527Z,24.80
2019-06-10T22:45:07.182Z,24.80
2019-06-10T22:47:35.465Z,24.80
2019-06-10T22:50:07.251Z,24.80
2019-06-10T22:52:34.203Z,24.80
2019-06-10T22:55:03.437Z,24.80
2019-06-10T22:57:31.764Z,24.80
2019-06-10T23:00:02.911Z,24.80
2019-06-10T23:02:30.394Z,24.80
2019-06-10T23:05:05.127Z,24.90
2019-06-10T23:07:32.976Z,24.90
2019-06-10T23:10:03.092Z,24.90
2019-06-10T23:12:30.351Z,24.90
2019-06-10T23:14:59.344Z,24.90
2019-06-10T23:17:27.457Z,24.90
2019-06-10T23:19:56.860Z,25.00
2019-06-10T23:22:25.091Z,25.00
2019-06-10T23:24:53.599Z,25.00
2019-06-10T23:27:23.364Z,25.00
2019-06-10T23:29:53.931Z,24.90
2019-06-10T23:32:22.191Z,24.90
2019-06-10T23:34:54.065Z,24.80
2019-06-10T23:37:22.811Z,24.80
2019-06-10T23:39:50.643Z,24.80
2019-06-10T23:42:18.712Z,24.70
2019-06-10T23:44:46.560Z,24.70
2019-06-10T23:47:14.464Z,24.70
2019-06-10T23:49:42.474Z,24.70
2019-06-10T23:52:12.800Z,24.70
2019-06-10T23:54:41.243Z,24.60
2019-06-10T23:57:09.160Z,24.60
2019-06-10T23:59:37.101Z,24.50
